Airport View

Enter AWOS ICAO identifier for current METAR.

ex. KFNL

KAWG 022330Z AUTO 23017KT 10SM CLR 31/21 A2983 RMK AO2

2 Jun 2020 23:31

Frequency: 127.825

Phone: 319-653-4149

Other Area AWOS: KFFL - KMPZ - KIOW - KMUT

TAF AMD KOTM 022134Z 0222/0318 21020G30KT P6SM SCT250 FM030600 20007KT P6SM BKN040 FM031100 34007KT P6SM BKN015 FM031400 27007KT P6SM SCT025